Redwood City, CA (94061)

5:46 PM PST on February 06, 2016 (GMT -0800)
Jasper Ridge Biological Preserve | | Change Station
CLOSE
Current Station
Personal Weather Station
Location: Woodside, CA
Elevation: 420 ft
Nearby Weather Stations

Elev 420 ft 37.41 °N, 122.24 °W | Updated 3 minutes ago

Partly Cloudy
Partly Cloudy
56.3 °F
Feels Like 56.3 °F
N
3.0
Wind Variable Wind from SSW
Gusts 3.0 mph

Today
High -- | Low -- °F
--% Chance of Precip.
Yesterday
High -- | Low -- °F
Precip. -- in
Pressure 30.32 in
Visibility 10.0 miles
Clouds Few 15000 ft
Mostly Cloudy 20000 ft
Dew Point 50 °F
Humidity 79%
Rainfall 0.00 in
Snow Depth Not available.
7:08 AM 5:38 PM
Waning Crescent, 3% visible
METAR KSQL 070047Z 33004KT 10SM FEW150 BKN200 18/06 A3032
Pressure 30.32 in
Visibility 10.0 miles
Clouds Few 15000 ft
Mostly Cloudy 20000 ft
Dew Point 50 °F
Humidity 79%
Rainfall 0.00 in
Snow Depth Not available.
7:08 AM 5:38 PM
Waning Crescent, 3% visible
METAR KSQL 070047Z 33004KT 10SM FEW150 BKN200 18/06 A3032

10-Day Weather Forecast

Almanac

Astronomy

Feb. 06, 2016 Rise Set
Actual Time
Civil Twilight
Nautical Twilight
Astronomical Twilight
Moon
Length of Visible Light
Length of Day
Tomorrow will be .
, % of the Moon is Illuminated

Today's Extremes

State Highs State Lows

Community

WunderPhotos

Upload Photos

1,891,123 photos uploaded!

WunderBlog® & News

Nearby

Air Quality

  Air Quality AQ Index Pollutant
Not available.

Snow Depth

Station Depth Elevation

Earthquake Activity

City Distance Mag. Time & Date
Minimum magnitude displayed is 2.5.

Coastal Water Temperatures

Place Temperature

Stations

Nearby Weather Stations

Station Location Temp. Windchill Dew Point Humidity Wind Precip. Elev Updated Type
                   

Watches & Warnings

There are currently no watches in effect.